Time;durP1;ratioP1;P1;durP2;ratioP2;P2;SDS_P1;SDS_P2;PMS_P1;PMS_P2;Temp;Humidity;BMP_temperature;BMP_pressure;BME280_temperature;BME280_humidity;BME280_pressure;Samples;Min_cycle;Max_cycle;Signal;HPM_P1;HPM_P2
2022/12/30 00:01:38;;;;;;;21.90;16.92;;;25.60;99.90;;;;;;5093154;28;20110;-71
2022/12/30 00:04:04;;;;;;;27.23;16.25;;;25.60;99.90;;;;;;5096686;28;20024;-72
2022/12/30 00:06:31;;;;;;;24.48;16.77;;;25.60;99.90;;;;;;5097257;28;20481;-72
2022/12/30 00:08:58;;;;;;;22.38;17.55;;;25.60;99.90;;;;;;5097038;28;20024;-72
2022/12/30 00:11:28;;;;;;;28.98;18.40;;;25.60;99.90;;;;;;5096915;28;20020;-72
2022/12/30 00:34:00;;;;;;;29.70;18.35;;;25.80;99.90;;;;;;5014494;28;20483;-70
2022/12/30 00:36:28;;;;;;;24.48;17.52;;;25.80;99.90;;;;;;5014465;28;20042;-70
2022/12/30 00:38:55;;;;;;;30.90;17.58;;;25.80;99.90;;;;;;5014343;28;20037;-71
2022/12/30 00:44:08;;;;;;;24.63;16.52;;;26.00;99.90;;;;;;5014236;28;20022;-69
2022/12/30 00:46:37;;;;;;;22.95;15.48;;;26.00;99.90;;;;;;5014287;28;20038;-69
2022/12/30 00:57:23;;;;;;;25.60;16.05;;;26.20;99.90;;;;;;4879917;29;20041;-72
2022/12/30 00:59:49;;;;;;;28.50;19.02;;;26.30;99.90;;;;;;4879793;29;20120;-71
2022/12/30 01:02:16;;;;;;;27.02;15.70;;;26.30;99.90;;;;;;4879865;29;20044;-73
2022/12/30 01:04:42;;;;;;;24.40;15.93;;;26.40;99.90;;;;;;4879789;29;20372;-72
2022/12/30 01:07:09;;;;;;;20.52;14.32;;;26.50;99.90;;;;;;4880040;29;20025;-72
2022/12/30 01:09:36;;;;;;;19.83;15.38;;;26.50;99.90;;;;;;4879879;29;20101;-72
2022/12/30 01:12:13;;;;;;;22.83;13.48;;;26.60;99.90;;;;;;4879829;29;20538;-72
2022/12/30 01:14:40;;;;;;;22.15;13.93;;;26.70;99.90;;;;;;4879329;29;20045;-72
2022/12/30 01:17:09;;;;;;;19.60;14.82;;;26.70;99.90;;;;;;4879742;29;20048;-71
2022/12/30 01:19:36;;;;;;;20.60;14.20;;;26.80;99.90;;;;;;4879609;29;20041;-72
2022/12/30 01:22:04;;;;;;;26.13;14.57;;;26.80;99.90;;;;;;4879458;29;20049;-71
2022/12/30 01:24:31;;;;;;;24.35;15.00;;;27.00;99.90;;;;;;4898766;29;20040;-71
2022/12/30 01:26:58;;;;;;;19.98;11.23;;;27.00;99.90;;;;;;4917053;29;20020;-72
2022/12/30 01:29:29;;;;;;;19.58;11.27;;;27.00;99.90;;;;;;4956811;28;20035;-69
2022/12/30 01:31:57;;;;;;;20.75;11.65;;;27.10;99.90;;;;;;4997415;28;20438;-71
2022/12/30 01:34:24;;;;;;;18.52;11.20;;;27.10;99.90;;;;;;5042283;28;20051;-72
2022/12/30 01:36:51;;;;;;;22.23;10.63;;;27.20;99.90;;;;;;5075153;28;20029;-71
2022/12/30 01:39:18;;;;;;;14.60;8.20;;;27.20;99.90;;;;;;5075123;28;20020;-72
2022/12/30 01:41:45;;;;;;;13.95;9.52;;;27.20;99.90;;;;;;5075033;28;20025;-72
2022/12/30 01:44:52;;;;;;;16.13;10.07;;;27.30;99.90;;;;;;5074989;28;20028;-71
2022/12/30 01:47:33;;;;;;;20.60;9.80;;;27.40;99.90;;;;;;5074773;28;20021;-71
2022/12/30 01:50:06;;;;;;;13.68;9.10;;;27.40;99.90;;;;;;5074876;28;20028;-71
2022/12/30 01:52:34;;;;;;;17.02;7.97;;;27.40;99.90;;;;;;5078772;28;20036;-71
2022/12/30 01:55:07;;;;;;;16.83;8.57;;;27.40;99.90;;;;;;5095278;28;20020;-73
2022/12/30 01:57:35;;;;;;;25.48;13.95;;;27.40;99.90;;;;;;5095370;28;20069;-70
2022/12/30 02:00:04;;;;;;;20.23;12.60;;;27.50;99.90;;;;;;5095254;28;20315;-72
2022/12/30 02:02:31;;;;;;;16.92;9.75;;;27.50;99.90;;;;;;5094984;28;20024;-73
2022/12/30 02:05:00;;;;;;;14.38;7.72;;;27.60;99.90;;;;;;5094984;28;20017;-72
2022/12/30 02:07:33;;;;;;;11.60;7.95;;;27.60;99.90;;;;;;5095466;28;20103;-73
2022/12/30 02:10:00;;;;;;;14.07;8.43;;;27.60;99.90;;;;;;5095151;28;20028;-72
2022/12/30 02:12:27;;;;;;;14.45;8.18;;;27.70;99.90;;;;;;5095018;28;20107;-72
2022/12/30 02:14:56;;;;;;;15.63;9.98;;;27.70;99.90;;;;;;5095228;28;20020;-72
2022/12/30 02:17:45;;;;;;;28.95;9.52;;;27.70;99.90;;;;;;5091433;28;20050;-72
2022/12/30 02:20:26;;;;;;;13.52;8.88;;;27.80;99.90;;;;;;5076224;28;20435;-72
2022/12/30 02:22:57;;;;;;;26.23;9.18;;;27.80;99.90;;;;;;5094903;28;20020;-72
2022/12/30 02:25:36;;;;;;;16.42;8.40;;;27.80;99.90;;;;;;5094312;28;20023;-72
2022/12/30 02:28:16;;;;;;;11.57;7.57;;;27.90;99.90;;;;;;5094716;28;20051;-73
2022/12/30 02:30:52;;;;;;;17.17;7.65;;;28.00;99.90;;;;;;5094762;28;20028;-72
2022/12/30 02:33:38;;;;;;;9.77;7.28;;;28.00;99.90;;;;;;5094722;28;20076;-72
2022/12/30 02:36:15;;;;;;;17.55;7.93;;;28.00;99.90;;;;;;5094676;28;20020;-72
2022/12/30 02:38:58;;;;;;;13.00;7.82;;;28.00;99.90;;;;;;5094484;28;20054;-70
2022/12/30 02:47:24;;;;;;;14.27;9.32;;;28.10;99.90;;;;;;5094096;28;20020;-72
2022/12/30 02:52:52;;;;;;;14.32;9.20;;;28.10;99.90;;;;;;5093759;28;20067;-70
2022/12/30 02:55:19;;;;;;;15.43;8.07;;;28.10;99.90;;;;;;5094265;28;20027;-70
2022/12/30 02:57:45;;;;;;;13.05;7.80;;;28.10;99.90;;;;;;5094027;28;20492;-69
2022/12/30 03:06:17;;;;;;;16.27;8.85;;;27.90;99.90;;;;;;5094022;28;20372;-69
2022/12/30 03:08:53;;;;;;;13.88;8.98;;;27.90;99.90;;;;;;5093958;28;20431;-69
2022/12/30 03:11:21;;;;;;;11.95;8.07;;;27.90;99.90;;;;;;5093733;28;20447;-68
2022/12/30 03:13:49;;;;;;;18.52;9.35;;;28.00;99.90;;;;;;5093964;28;20461;-70
2022/12/30 03:16:28;;;;;;;18.00;9.05;;;27.90;99.90;;;;;;5093746;28;20460;-70
2022/12/30 03:18:55;;;;;;;15.95;8.68;;;28.00;99.90;;;;;;5093674;28;20077;-68
2022/12/30 03:21:25;;;;;;;16.77;9.80;;;28.00;99.90;;;;;;5093543;28;20115;-69
2022/12/30 03:29:40;;;;;;;62.17;35.70;;;28.00;99.90;;;;;;5093421;28;20074;-69
2022/12/30 03:32:11;;;;;;;24.38;14.38;;;28.10;99.90;;;;;;5093454;28;20419;-70
2022/12/30 03:34:39;;;;;;;16.70;9.63;;;28.10;99.90;;;;;;5093336;28;20024;-69
2022/12/30 03:37:17;;;;;;;16.88;10.75;;;28.10;99.90;;;;;;5092610;28;20103;-70
2022/12/30 03:40:02;;;;;;;20.33;10.00;;;28.20;99.90;;;;;;5094136;28;20024;-68
2022/12/30 03:42:31;;;;;;;14.88;9.48;;;28.30;99.90;;;;;;5114423;28;20027;-69
2022/12/30 03:44:58;;;;;;;20.95;11.80;;;28.40;99.90;;;;;;5114260;28;20272;-69
2022/12/30 03:47:24;;;;;;;19.52;11.35;;;28.40;99.90;;;;;;5114209;28;20024;-70
2022/12/30 03:49:51;;;;;;;25.27;10.45;;;28.50;99.90;;;;;;5113969;28;20372;-69
2022/12/30 03:52:20;;;;;;;17.55;11.00;;;28.50;99.90;;;;;;5115272;28;20051;-70
2022/12/30 03:54:50;;;;;;;16.33;10.30;;;28.60;99.90;;;;;;5134254;28;20072;-69
2022/12/30 03:57:18;;;;;;;13.63;9.00;;;28.50;99.90;;;;;;5134369;28;20038;-68
2022/12/30 03:59:44;;;;;;;13.68;8.70;;;28.60;99.90;;;;;;5134171;28;20024;-69
2022/12/30 04:02:11;;;;;;;13.10;8.40;;;28.60;99.90;;;;;;5134266;28;20018;-68
2022/12/30 04:04:37;;;;;;;94.63;68.57;;;28.60;99.90;;;;;;5134434;28;20015;-70
2022/12/30 04:07:04;;;;;;;28.13;22.05;;;28.70;99.90;;;;;;5134324;28;20023;-68
2022/12/30 04:09:31;;;;;;;24.55;17.58;;;28.70;99.90;;;;;;5134220;28;20019;-70
2022/12/30 04:11:57;;;;;;;75.45;51.00;;;28.80;99.90;;;;;;5134383;28;20037;-70
2022/12/30 04:14:24;;;;;;;138.57;78.15;;;29.00;99.90;;;;;;5134052;28;20102;-68
2022/12/30 04:16:50;;;;;;;23.23;14.63;;;29.00;99.90;;;;;;5134231;28;20019;-70
2022/12/30 04:19:17;;;;;;;19.92;12.70;;;29.10;99.90;;;;;;5134034;28;20023;-69
2022/12/30 04:21:44;;;;;;;18.75;11.65;;;29.10;99.90;;;;;;5134105;28;20425;-69
2022/12/30 04:24:10;;;;;;;112.40;18.48;;;29.10;99.90;;;;;;5133823;28;20026;-67
2022/12/30 04:26:37;;;;;;;60.08;14.48;;;29.00;99.90;;;;;;5133877;28;20015;-66
2022/12/30 04:29:03;;;;;;;85.72;16.90;;;29.00;99.90;;;;;;5133907;28;20023;-66
2022/12/30 04:31:30;;;;;;;17.20;10.70;;;29.00;99.90;;;;;;5133670;28;20072;-69
2022/12/30 04:33:56;;;;;;;29.40;13.25;;;29.00;99.90;;;;;;5114328;28;20470;-67
2022/12/30 04:36:23;;;;;;;19.08;11.95;;;29.10;99.90;;;;;;5101696;28;20063;-68
2022/12/30 04:38:49;;;;;;;20.95;10.88;;;29.10;99.90;;;;;;5097949;28;20027;-68
2022/12/30 04:41:18;;;;;;;15.52;9.10;;;29.10;99.90;;;;;;5102876;28;20185;-68
2022/12/30 04:43:44;;;;;;;19.02;10.70;;;29.10;99.90;;;;;;5103342;28;20528;-68
2022/12/30 04:46:11;;;;;;;14.75;8.13;;;29.10;99.90;;;;;;5099305;28;20020;-67
2022/12/30 04:48:37;;;;;;;18.60;10.38;;;29.10;99.90;;;;;;5114731;28;20388;-67
2022/12/30 04:51:04;;;;;;;33.20;20.15;;;29.10;99.90;;;;;;5116781;28;20024;-66
2022/12/30 04:53:31;;;;;;;16.67;12.65;;;29.10;99.90;;;;;;5116633;28;20047;-68
2022/12/30 04:55:58;;;;;;;19.25;11.60;;;29.20;99.90;;;;;;5116038;28;20058;-63
2022/12/30 04:58:25;;;;;;;12.23;9.93;;;29.30;99.90;;;;;;5116241;28;20480;-66
2022/12/30 05:00:52;;;;;;;18.00;10.45;;;29.30;99.90;;;;;;5116384;28;20020;-65
2022/12/30 05:03:19;;;;;;;18.27;10.25;;;29.30;99.90;;;;;;5116827;28;20023;-66
2022/12/30 05:05:47;;;;;;;20.80;11.30;;;29.30;99.90;;;;;;5116716;28;20099;-65
2022/12/30 05:08:14;;;;;;;17.42;10.50;;;29.30;99.90;;;;;;5116567;28;20027;-67
2022/12/30 05:10:40;;;;;;;15.82;10.07;;;29.20;99.90;;;;;;5116444;28;20027;-68
2022/12/30 05:13:07;;;;;;;11.20;9.18;;;29.20;99.90;;;;;;5116425;28;20028;-72
2022/12/30 05:15:34;;;;;;;15.00;8.40;;;29.20;99.90;;;;;;5116287;28;20059;-71
2022/12/30 05:18:00;;;;;;;15.15;9.70;;;29.20;99.90;;;;;;5116587;28;20016;-72
2022/12/30 05:20:27;;;;;;;14.10;9.05;;;29.10;99.90;;;;;;5116230;28;20031;-72
2022/12/30 05:22:53;;;;;;;15.57;8.55;;;29.10;99.90;;;;;;5116339;28;20020;-72
2022/12/30 05:28:06;;;;;;;14.38;9.30;;;29.10;99.90;;;;;;5116975;27;20023;-71
2022/12/30 05:30:32;;;;;;;19.33;9.75;;;29.10;99.90;;;;;;5123919;27;20471;-71
2022/12/30 05:32:59;;;;;;;14.20;8.68;;;29.20;99.90;;;;;;5126600;27;20543;-70
2022/12/30 05:35:25;;;;;;;16.63;9.55;;;29.10;99.90;;;;;;5123330;27;20102;-69
2022/12/30 05:37:52;;;;;;;15.15;10.15;;;29.10;99.90;;;;;;5118827;27;20024;-71
2022/12/30 05:40:20;;;;;;;20.10;10.77;;;29.10;99.90;;;;;;5115163;28;20020;-70
2022/12/30 05:42:46;;;;;;;15.82;9.05;;;29.10;99.90;;;;;;5116033;28;20024;-70
2022/12/30 05:45:13;;;;;;;20.40;12.57;;;29.10;99.90;;;;;;5116297;28;20422;-71
2022/12/30 05:47:39;;;;;;;18.20;11.32;;;29.20;99.90;;;;;;5116228;28;20469;-70
2022/12/30 05:50:06;;;;;;;13.05;9.70;;;29.20;99.90;;;;;;5115827;28;20028;-70
2022/12/30 05:52:32;;;;;;;16.95;10.45;;;29.20;99.90;;;;;;5115589;28;20032;-71
2022/12/30 05:54:59;;;;;;;17.83;10.45;;;29.30;99.90;;;;;;5115804;28;20025;-71
2022/12/30 05:57:25;;;;;;;13.68;8.90;;;29.30;99.90;;;;;;5115587;28;20023;-71
2022/12/30 05:59:52;;;;;;;16.38;10.48;;;29.30;99.90;;;;;;5114252;28;20560;-70
2022/12/30 06:02:18;;;;;;;16.00;10.45;;;29.30;99.90;;;;;;5115267;28;20096;-71
2022/12/30 06:04:45;;;;;;;21.30;11.18;;;29.20;99.90;;;;;;5114974;28;20016;-70
2022/12/30 06:07:11;;;;;;;16.40;10.05;;;29.20;99.90;;;;;;5115196;28;20019;-69
2022/12/30 06:09:38;;;;;;;19.25;12.35;;;29.20;99.90;;;;;;5115359;28;20016;-69
2022/12/30 06:12:04;;;;;;;17.15;12.32;;;29.30;99.90;;;;;;5115285;28;20016;-69
2022/12/30 06:14:31;;;;;;;15.75;10.40;;;29.40;99.90;;;;;;5115235;28;20012;-69
2022/12/30 06:16:57;;;;;;;13.15;10.27;;;29.40;99.90;;;;;;5115287;28;20069;-70
2022/12/30 06:19:24;;;;;;;10.45;8.93;;;29.30;99.90;;;;;;5115308;28;20047;-73
2022/12/30 06:21:50;;;;;;;15.35;8.88;;;29.40;99.90;;;;;;5114572;28;20028;-71
2022/12/30 06:24:17;;;;;;;14.48;9.20;;;29.40;99.90;;;;;;5114749;28;20016;-72
2022/12/30 06:26:43;;;;;;;22.92;11.73;;;29.40;99.90;;;;;;5115137;28;20015;-72
2022/12/30 06:29:10;;;;;;;15.50;11.20;;;29.40;99.90;;;;;;5114931;28;20380;-73
2022/12/30 06:31:36;;;;;;;18.13;13.10;;;29.50;99.90;;;;;;5115110;28;20016;-71
2022/12/30 06:34:03;;;;;;;20.83;13.65;;;29.40;99.90;;;;;;5115202;28;20034;-72
2022/12/30 06:36:29;;;;;;;25.10;16.50;;;29.50;99.90;;;;;;5114976;28;20057;-70
2022/12/30 06:38:56;;;;;;;25.15;14.55;;;29.50;99.90;;;;;;5114890;28;20027;-71
2022/12/30 06:41:22;;;;;;;21.80;12.93;;;29.50;99.90;;;;;;5098483;28;20032;-69
2022/12/30 06:43:49;;;;;;;27.30;13.68;;;29.60;99.90;;;;;;5114775;28;20484;-69
2022/12/30 06:46:15;;;;;;;25.15;15.35;;;29.60;99.90;;;;;;5114813;28;20023;-69
2022/12/30 06:48:42;;;;;;;21.92;14.45;;;29.70;99.90;;;;;;5109256;28;20016;-70
2022/12/30 06:51:08;;;;;;;19.52;12.20;;;29.80;99.90;;;;;;5093745;28;20111;-69
2022/12/30 06:53:35;;;;;;;17.73;11.25;;;29.90;99.90;;;;;;5093969;28;20044;-73
2022/12/30 06:56:01;;;;;;;25.58;15.32;;;29.90;99.90;;;;;;5094032;28;20044;-70
2022/12/30 06:58:28;;;;;;;18.42;8.80;;;30.00;99.90;;;;;;5094009;28;20130;-69
2022/12/30 07:00:54;;;;;;;18.05;13.20;;;30.10;99.90;;;;;;5093684;28;20020;-70
2022/12/30 07:03:21;;;;;;;25.52;15.15;;;30.20;99.90;;;;;;5093633;28;20024;-71
2022/12/30 07:05:47;;;;;;;24.85;15.10;;;30.30;99.90;;;;;;5094054;28;20012;-72
2022/12/30 07:08:14;;;;;;;20.23;12.77;;;30.30;99.90;;;;;;5094387;28;20024;-70
2022/12/30 07:10:41;;;;;;;12.45;9.30;;;30.40;99.90;;;;;;5093843;28;20366;-70
2022/12/30 07:13:08;;;;;;;16.58;9.40;;;30.60;99.90;;;;;;5093774;28;20016;-73
2022/12/30 07:15:34;;;;;;;19.45;11.85;;;30.70;99.90;;;;;;5093615;28;20028;-73
2022/12/30 07:18:01;;;;;;;17.42;10.13;;;30.70;99.90;;;;;;5093718;28;20035;-74
2022/12/30 07:20:27;;;;;;;12.77;9.23;;;30.70;99.90;;;;;;5093646;28;20020;-74
2022/12/30 07:22:54;;;;;;;15.52;9.30;;;30.70;99.90;;;;;;5093342;28;20027;-72
2022/12/30 07:25:20;;;;;;;18.33;11.45;;;30.70;99.90;;;;;;5093828;28;20380;-72
2022/12/30 07:27:47;;;;;;;15.50;9.95;;;30.60;99.90;;;;;;5093822;28;20020;-72
2022/12/30 07:30:14;;;;;;;17.10;9.00;;;30.60;99.90;;;;;;5093710;28;20024;-71
2022/12/30 07:32:40;;;;;;;18.52;9.35;;;30.60;99.90;;;;;;5098781;28;20023;-72
2022/12/30 07:35:07;;;;;;;12.95;8.57;;;30.60;99.90;;;;;;5106713;28;20956;-72
2022/12/30 07:37:35;;;;;;;13.25;8.27;;;30.60;99.90;;;;;;5098096;27;20028;-70
2022/12/30 07:40:03;;;;;;;12.70;7.72;;;30.70;99.90;;;;;;5117882;27;20083;-72
2022/12/30 07:42:30;;;;;;;18.65;8.90;;;30.80;99.90;;;;;;5123888;28;20028;-74
2022/12/30 07:44:56;;;;;;;18.80;9.95;;;30.90;99.90;;;;;;5117587;28;20012;-72
2022/12/30 07:47:23;;;;;;;17.20;10.88;;;30.90;99.90;;;;;;5124824;28;20016;-73
2022/12/30 07:49:49;;;;;;;22.02;11.70;;;31.00;99.90;;;;;;5124040;28;20022;-70
2022/12/30 07:52:16;;;;;;;16.27;11.00;;;31.10;99.90;;;;;;5123857;28;20107;-69
2022/12/30 07:54:42;;;;;;;16.60;9.38;;;31.20;99.90;;;;;;5122486;28;20015;-72
2022/12/30 07:57:09;;;;;;;15.85;9.38;;;31.20;99.90;;;;;;5124220;28;20511;-71
2022/12/30 07:59:35;;;;;;;14.98;8.48;;;31.20;99.90;;;;;;5123902;28;20371;-72
2022/12/30 08:02:01;;;;;;;22.02;10.57;;;31.30;99.90;;;;;;5122386;28;20027;-73
2022/12/30 08:04:28;;;;;;;19.60;9.00;;;31.40;99.90;;;;;;5134044;28;20019;-72
2022/12/30 08:06:54;;;;;;;12.25;8.20;;;31.50;99.90;;;;;;5134308;28;20022;-72
2022/12/30 08:09:21;;;;;;;13.27;8.65;;;31.60;99.90;;;;;;5133882;28;20015;-70
2022/12/30 08:11:47;;;;;;;12.38;8.05;;;31.60;99.90;;;;;;5133950;28;20116;-71
2022/12/30 08:14:14;;;;;;;10.88;7.93;;;31.50;99.90;;;;;;5133967;28;20035;-70
2022/12/30 08:16:40;;;;;;;18.73;8.70;;;31.50;99.90;;;;;;5133366;28;20417;-72
2022/12/30 08:19:07;;;;;;;13.38;9.57;;;31.40;99.90;;;;;;5100931;28;20028;-69
2022/12/30 08:21:33;;;;;;;19.50;11.63;;;31.40;99.90;;;;;;5113515;28;20045;-71
2022/12/30 08:24:00;;;;;;;18.85;11.27;;;31.30;99.90;;;;;;5115191;28;20027;-71
2022/12/30 08:26:26;;;;;;;18.33;11.23;;;31.30;99.90;;;;;;5122763;27;20349;-70
2022/12/30 08:28:53;;;;;;;17.75;11.63;;;31.20;99.90;;;;;;5126708;27;20011;-70
2022/12/30 08:31:26;;;;;;;15.20;10.25;;;31.20;99.90;;;;;;5121506;27;20106;-71
2022/12/30 08:33:53;;;;;;;15.68;8.82;;;31.20;99.90;;;;;;5121525;27;20540;-71
2022/12/30 08:36:24;;;;;;;18.02;12.20;;;31.30;99.90;;;;;;5127046;27;20077;-71
2022/12/30 08:38:54;;;;;;;16.27;11.20;;;31.30;99.90;;;;;;5126649;27;20024;-73
2022/12/30 08:41:21;;;;;;;21.80;11.95;;;31.30;99.90;;;;;;5128317;27;20058;-70
2022/12/30 08:43:48;;;;;;;19.90;11.77;;;31.30;99.90;;;;;;5120169;27;20494;-72
2022/12/30 08:46:16;;;;;;;18.80;9.77;;;31.30;99.90;;;;;;5099380;28;20027;-72
2022/12/30 08:48:44;;;;;;;13.93;12.40;;;31.30;99.90;;;;;;5116648;28;20019;-71
2022/12/30 08:51:11;;;;;;;18.92;12.07;;;31.30;99.90;;;;;;5117588;28;20038;-70
2022/12/30 08:53:38;;;;;;;17.90;10.73;;;31.30;99.90;;;;;;5116235;28;20546;-73
2022/12/30 08:56:08;;;;;;;15.35;9.55;;;31.30;99.90;;;;;;5105540;28;20023;-71
2022/12/30 08:58:35;;;;;;;21.15;9.77;;;31.30;99.90;;;;;;5121127;28;20023;-72
2022/12/30 09:01:15;;;;;;;12.93;10.30;;;31.20;99.90;;;;;;5113292;28;20035;-73
2022/12/30 09:03:42;;;;;;;22.85;11.25;;;31.20;99.90;;;;;;5094332;28;20043;-71
2022/12/30 09:06:11;;;;;;;99.75;61.40;;;31.30;99.90;;;;;;5107544;28;20022;-72
2022/12/30 09:08:38;;;;;;;55.42;35.63;;;31.20;99.90;;;;;;5110047;28;20024;-70
2022/12/30 09:11:11;;;;;;;46.35;26.20;;;31.20;99.90;;;;;;5099893;28;20115;-68
2022/12/30 09:13:38;;;;;;;39.63;22.17;;;31.20;99.90;;;;;;5093123;28;20032;-69
2022/12/30 09:16:08;;;;;;;48.10;31.10;;;31.20;99.90;;;;;;5096984;28;20019;-69
2022/12/30 09:18:36;;;;;;;36.97;19.10;;;31.20;99.90;;;;;;5107196;28;20465;-68
2022/12/30 09:21:03;;;;;;;26.15;14.55;;;31.20;99.90;;;;;;5100329;28;20090;-67
2022/12/30 09:23:30;;;;;;;19.55;13.82;;;31.20;99.90;;;;;;5112282;28;20504;-70
2022/12/30 09:25:57;;;;;;;20.90;14.18;;;31.20;99.90;;;;;;5114389;28;20020;-69
2022/12/30 09:28:24;;;;;;;27.38;17.50;;;31.20;99.90;;;;;;5106856;28;20067;-71
2022/12/30 09:30:51;;;;;;;26.98;15.90;;;31.20;99.90;;;;;;5114689;28;20032;-69
2022/12/30 09:33:18;;;;;;;80.22;59.40;;;31.20;99.90;;;;;;5114548;28;20020;-69
2022/12/30 09:35:45;;;;;;;74.43;54.60;;;31.10;99.90;;;;;;5109026;28;20035;-69
2022/12/30 09:38:11;;;;;;;54.10;35.60;;;31.10;99.90;;;;;;5094428;28;20024;-70
2022/12/30 09:40:39;;;;;;;54.95;35.75;;;31.10;99.90;;;;;;5097670;28;20016;-71
2022/12/30 09:43:17;;;;;;;130.57;90.57;;;31.10;99.90;;;;;;5099713;28;20024;-69
2022/12/30 09:45:53;;;;;;;59.30;42.88;;;31.10;99.90;;;;;;5095229;28;20040;-68
2022/12/30 09:48:26;;;;;;;46.92;29.75;;;31.00;99.90;;;;;;5094929;28;20381;-69
2022/12/30 09:51:01;;;;;;;80.88;58.88;;;30.90;99.90;;;;;;5097069;28;20024;-68
2022/12/30 09:53:45;;;;;;;52.58;34.45;;;30.80;99.90;;;;;;5007338;28;2540491;-71
2022/12/30 09:56:17;;;;;;;38.65;27.67;;;30.70;99.90;;;;;;5103079;28;20045;-69
2022/12/30 09:58:45;;;;;;;148.70;110.00;;;30.70;99.90;;;;;;5105059;28;20031;-71
2022/12/30 10:01:15;;;;;;;55.58;38.55;;;30.80;99.90;;;;;;5114634;27;20036;-70
2022/12/30 10:03:42;;;;;;;115.88;87.13;;;30.70;99.90;;;;;;5102746;28;20076;-70
2022/12/30 10:06:29;;;;;;;82.25;51.65;;;30.60;99.90;;;;;;5104403;28;20095;-71
2022/12/30 10:08:56;;;;;;;91.45;62.83;;;30.60;99.90;;;;;;5118532;27;20050;-71
2022/12/30 10:11:39;;;;;;;41.92;27.48;;;30.50;99.90;;;;;;5112137;27;20020;-71
2022/12/30 10:14:13;;;;;;;70.82;48.20;;;30.50;99.90;;;;;;5132883;27;20034;-72
2022/12/30 10:17:00;;;;;;;37.05;24.80;;;30.50;99.90;;;;;;5102666;27;20028;-71
2022/12/30 10:19:36;;;;;;;37.72;24.33;;;30.30;99.90;;;;;;5098796;28;20032;-68
2022/12/30 10:22:37;;;;;;;47.00;28.83;;;30.30;99.90;;;;;;5098354;28;20069;-66
2022/12/30 10:25:27;;;;;;;154.88;102.63;;;30.30;99.90;;;;;;5099231;28;20533;-71
2022/12/30 10:27:57;;;;;;;94.25;65.57;;;30.30;99.90;;;;;;5093061;28;20028;-71
2022/12/30 10:30:34;;;;;;;189.70;151.95;;;30.20;99.90;;;;;;5118281;27;20068;-70
2022/12/30 10:33:06;;;;;;;65.25;37.78;;;30.00;99.90;;;;;;5108295;27;20496;-69
2022/12/30 10:35:34;;;;;;;35.05;14.32;;;29.50;99.90;;;;;;5096532;28;20073;-70
2022/12/30 10:38:14;;;;;;;32.53;16.30;;;28.80;99.90;;;;;;5108649;28;20027;-66
2022/12/30 10:41:06;;;;;;;27.13;9.52;;;28.30;99.90;;;;;;5113474;28;20034;-67
2022/12/30 10:44:00;;;;;;;36.75;16.17;;;27.90;99.90;;;;;;5110431;28;20076;-69
2022/12/30 10:46:36;;;;;;;29.65;18.45;;;27.70;99.90;;;;;;5107872;28;20020;-70
2022/12/30 10:49:06;;;;;;;11.85;4.30;;;27.70;99.90;;;;;;5111432;28;20020;-67
2022/12/30 10:51:33;;;;;;;9.18;3.35;;;27.60;99.90;;;;;;5095572;28;20121;-62
2022/12/30 10:54:01;;;;;;;33.42;21.30;;;27.50;99.90;;;;;;5129490;27;20051;-61
2022/12/30 10:56:30;;;;;;;14.68;6.65;;;27.40;99.90;;;;;;5134075;27;20027;-62
2022/12/30 10:59:04;;;;;;;28.33;18.35;;;27.20;99.90;;;;;;5107403;27;20024;-62
2022/12/30 11:01:38;;;;;;;22.67;11.02;;;27.10;99.90;;;;;;5102716;28;20024;-62
2022/12/30 11:04:05;;;;;;;21.17;10.65;;;27.00;99.90;;;;;;5099146;28;20404;-62
2022/12/30 11:06:36;;;;;;;31.58;20.05;;;27.00;99.90;;;;;;5104918;28;20026;-61
2022/12/30 11:09:11;;;;;;;43.15;32.60;;;27.00;99.90;;;;;;5104792;28;20415;-60
2022/12/30 11:17:24;;;;;;;6.80;3.00;;;26.90;99.90;;;;;;5102182;28;20024;-63
2022/12/30 11:19:53;;;;;;;4.60;3.05;;;26.90;99.90;;;;;;5102249;28;20017;-62
2022/12/30 11:22:21;;;;;;;7.53;4.97;;;27.00;99.90;;;;;;5103210;28;20027;-62
2022/12/30 11:25:03;;;;;;;6.88;4.53;;;27.00;99.90;;;;;;5104088;28;20069;-62
2022/12/30 11:27:46;;;;;;;5.45;3.80;;;27.00;99.90;;;;;;5102524;28;20023;-62
2022/12/30 11:30:35;;;;;;;9.95;5.30;;;27.00;99.90;;;;;;5102206;28;20024;-61
2022/12/30 11:33:06;;;;;;;54.60;30.58;;;27.10;99.90;;;;;;5100487;28;20039;-61
2022/12/30 11:35:43;;;;;;;20.55;10.07;;;27.10;99.90;;;;;;5107907;28;20027;-63
2022/12/30 11:38:31;;;;;;;14.93;9.93;;;27.00;99.90;;;;;;5102525;28;20472;-62
2022/12/30 11:41:16;;;;;;;28.77;21.02;;;27.00;99.90;;;;;;5098590;28;20040;-64
2022/12/30 11:43:45;;;;;;;17.42;8.68;;;26.90;99.90;;;;;;5103961;28;20448;-62
2022/12/30 11:46:18;;;;;;;9.48;5.63;;;26.90;99.90;;;;;;5096055;28;20028;-64
2022/12/30 11:48:50;;;;;;;13.27;8.27;;;26.90;99.90;;;;;;5093983;28;20078;-63
2022/12/30 11:51:18;;;;;;;14.20;7.45;;;26.90;99.90;;;;;;5108555;28;20384;-63
2022/12/30 11:53:46;;;;;;;24.33;12.57;;;26.90;99.90;;;;;;5119077;28;20045;-64
2022/12/30 11:56:12;;;;;;;22.73;12.02;;;26.90;99.90;;;;;;5112794;28;20038;-63
2022/12/30 11:58:42;;;;;;;23.83;9.25;;;26.90;99.90;;;;;;5114950;28;20019;-64
2022/12/30 12:01:11;;;;;;;19.73;11.63;;;26.90;99.90;;;;;;5110306;28;20059;-64
2022/12/30 12:03:52;;;;;;;38.22;21.60;;;26.90;99.90;;;;;;5114182;28;20098;-63
2022/12/30 12:06:19;;;;;;;68.80;40.67;;;26.90;99.90;;;;;;5095458;28;20499;-63
2022/12/30 12:08:47;;;;;;;102.57;65.03;;;26.90;99.90;;;;;;5097378;28;20445;-63
2022/12/30 12:11:27;;;;;;;113.43;70.70;;;26.80;99.90;;;;;;5096931;28;20537;-63
2022/12/30 12:14:07;;;;;;;50.80;33.03;;;26.90;99.90;;;;;;5102279;28;20114;-63
2022/12/30 12:16:35;;;;;;;78.97;54.67;;;26.90;99.90;;;;;;5115007;28;20032;-64
2022/12/30 12:19:42;;;;;;;89.70;55.72;;;26.90;99.90;;;;;;5117431;28;20465;-64
2022/12/30 12:22:36;;;;;;;62.40;34.78;;;26.90;99.90;;;;;;5014574;28;20057;-64
2022/12/30 12:25:13;;;;;;;54.10;36.22;;;26.90;99.90;;;;;;5013009;28;20133;-64
2022/12/30 12:27:40;;;;;;;29.30;18.88;;;26.90;99.90;;;;;;5008150;28;20475;-64
2022/12/30 12:30:12;;;;;;;42.30;27.58;;;26.80;99.90;;;;;;4995039;28;20065;-64
2022/12/30 12:33:04;;;;;;;35.38;18.98;;;26.70;99.90;;;;;;4995270;28;20034;-64
2022/12/30 12:35:59;;;;;;;29.35;19.10;;;26.60;99.90;;;;;;4994737;28;20042;-62
2022/12/30 12:38:30;;;;;;;27.80;19.92;;;26.50;99.90;;;;;;4999137;28;20029;-67
2022/12/30 12:40:57;;;;;;;24.55;16.70;;;26.40;99.90;;;;;;4994828;28;20046;-67
2022/12/30 12:43:26;;;;;;;21.65;12.88;;;26.40;99.90;;;;;;4995037;28;20487;-63
2022/12/30 12:46:22;;;;;;;19.60;12.60;;;26.20;99.90;;;;;;4994726;28;20181;-63
2022/12/30 12:48:59;;;;;;;20.88;13.48;;;26.20;99.90;;;;;;4994418;28;20102;-63
2022/12/30 12:51:33;;;;;;;19.70;13.50;;;26.20;99.90;;;;;;5003080;28;20395;-63
2022/12/30 12:54:27;;;;;;;19.58;13.43;;;26.20;99.90;;;;;;5095734;28;20048;-64
2022/12/30 12:56:59;;;;;;;15.75;12.20;;;26.20;99.90;;;;;;4993922;28;20116;-64
2022/12/30 12:59:26;;;;;;;19.95;13.23;;;26.20;99.90;;;;;;4994221;28;20431;-64
2022/12/30 13:02:04;;;;;;;19.08;12.45;;;26.20;99.90;;;;;;4993023;28;20030;-64
2022/12/30 13:04:51;;;;;;;24.90;15.20;;;26.20;99.90;;;;;;4992775;28;20030;-64
2022/12/30 13:07:29;;;;;;;21.83;14.55;;;26.20;99.90;;;;;;4991997;28;20130;-64
2022/12/30 13:10:16;;;;;;;21.70;13.10;;;26.20;99.90;;;;;;4991486;28;20034;-63
2022/12/30 13:13:04;;;;;;;24.42;14.50;;;26.20;99.90;;;;;;4992226;28;20029;-64
2022/12/30 13:15:40;;;;;;;22.30;13.98;;;26.20;99.90;;;;;;4992609;28;20030;-64
2022/12/30 13:18:16;;;;;;;20.63;13.82;;;26.20;99.90;;;;;;4992882;28;20074;-64
2022/12/30 13:20:51;;;;;;;21.45;14.18;;;26.30;99.90;;;;;;4993659;28;20109;-64
2022/12/30 13:23:21;;;;;;;15.82;11.77;;;26.20;99.90;;;;;;4993871;28;20053;-64
2022/12/30 13:26:08;;;;;;;17.98;12.63;;;26.10;99.90;;;;;;4993884;28;20026;-63
2022/12/30 13:28:35;;;;;;;16.02;12.30;;;26.10;99.90;;;;;;5094457;28;20040;-65
2022/12/30 13:31:28;;;;;;;18.42;12.40;;;26.10;99.90;;;;;;5095501;28;20034;-65
2022/12/30 13:34:01;;;;;;;21.75;11.70;;;26.10;99.90;;;;;;5095416;28;20061;-65
2022/12/30 13:36:38;;;;;;;14.45;8.88;;;26.00;99.90;;;;;;5095125;28;20027;-65
2022/12/30 13:39:24;;;;;;;11.48;7.20;;;25.90;99.90;;;;;;5095375;28;20028;-66
2022/12/30 13:42:26;;;;;;;10.30;8.05;;;25.80;99.90;;;;;;5095063;28;20107;-65
2022/12/30 13:44:54;;;;;;;9.93;8.02;;;25.80;99.90;;;;;;5095048;28;20389;-65
2022/12/30 13:47:32;;;;;;;14.00;10.68;;;25.80;99.90;;;;;;5095027;28;20030;-65
2022/12/30 13:50:01;;;;;;;29.25;22.10;;;25.80;99.90;;;;;;5094959;28;20028;-65